createdAt,value
2018-02-09T00:00:03.449Z,87.50
2018-02-09T00:01:03.377Z,88.10
2018-02-09T00:02:03.307Z,92.10
2018-02-09T00:03:03.239Z,89.00
2018-02-09T00:04:03.169Z,92.40
2018-02-09T00:05:03.101Z,90.70
2018-02-09T00:06:03.031Z,88.80
2018-02-09T00:07:02.961Z,89.00
2018-02-09T00:08:02.892Z,85.10
2018-02-09T00:09:02.824Z,85.30
2018-02-09T00:10:02.758Z,87.80
2018-02-09T00:11:02.684Z,87.60
2018-02-09T00:12:02.615Z,89.00
2018-02-09T00:13:02.545Z,89.40
2018-02-09T00:14:02.477Z,87.40
2018-02-09T00:15:02.407Z,87.30
2018-02-09T00:16:02.338Z,86.20
2018-02-09T00:17:02.269Z,90.40
2018-02-09T00:18:02.206Z,88.80
2018-02-09T00:19:02.334Z,90.20
2018-02-09T00:20:02.061Z,86.20
2018-02-09T00:21:01.991Z,86.60
2018-02-09T00:22:01.922Z,87.00
2018-02-09T00:23:01.853Z,85.90
2018-02-09T00:24:01.784Z,86.10
2018-02-09T00:25:01.714Z,85.50
2018-02-09T00:26:01.645Z,86.30
2018-02-09T00:27:01.576Z,85.30
2018-02-09T00:28:01.507Z,82.70
2018-02-09T00:29:01.437Z,88.20
2018-02-09T00:30:01.368Z,90.80
2018-02-09T00:31:01.299Z,92.80
2018-02-09T00:32:01.231Z,87.20
2018-02-09T00:33:01.160Z,92.70
2018-02-09T00:34:01.093Z,91.50
2018-02-09T00:35:01.023Z,92.30
2018-02-09T00:36:00.953Z,91.50
2018-02-09T00:37:00.883Z,93.60
2018-02-09T00:38:00.820Z,91.80
2018-02-09T00:39:00.746Z,91.00
2018-02-09T00:40:00.677Z,89.70
2018-02-09T00:41:00.606Z,88.40
2018-02-09T00:42:00.539Z,91.70
2018-02-09T00:43:00.468Z,92.50
2018-02-09T00:44:00.399Z,92.50
2018-02-09T00:45:00.329Z,93.50
2018-02-09T00:46:00.261Z,92.00
2018-02-09T00:47:00.192Z,91.80
2018-02-09T00:48:00.126Z,91.30
2018-02-09T00:49:00.054Z,91.60
2018-02-09T00:49:59.984Z,95.90
2018-02-09T00:50:59.965Z,94.30
2018-02-09T00:51:59.845Z,93.20
2018-02-09T00:52:59.778Z,95.00
2018-02-09T00:53:59.707Z,94.70
2018-02-09T00:54:59.638Z,89.50
2018-02-09T00:55:59.568Z,90.70
2018-02-09T00:56:59.500Z,86.00
2018-02-09T00:57:59.431Z,82.80
2018-02-09T00:58:59.364Z,82.80
2018-02-09T00:59:59.293Z,87.20
2018-02-09T01:00:59.223Z,89.40
2018-02-09T01:01:59.154Z,88.60
2018-02-09T01:02:59.086Z,90.00
2018-02-09T01:03:59.018Z,92.00
2018-02-09T01:04:58.946Z,91.10
2018-02-09T01:05:58.879Z,94.70
2018-02-09T01:06:58.809Z,93.20
2018-02-09T01:07:58.740Z,92.80
2018-02-09T01:08:58.671Z,92.60
2018-02-09T01:09:58.603Z,90.60
2018-02-09T01:10:58.532Z,91.30
2018-02-09T01:11:58.464Z,90.20
2018-02-09T01:12:58.393Z,89.70
2018-02-09T01:13:58.327Z,87.70
2018-02-09T01:14:58.256Z,90.60
2018-02-09T01:15:58.187Z,89.00
2018-02-09T01:16:58.117Z,88.20
2018-02-09T01:17:58.048Z,86.00
2018-02-09T01:18:57.979Z,86.30
2018-02-09T01:19:57.923Z,88.10
2018-02-09T01:20:57.842Z,87.10
2018-02-09T01:21:57.772Z,88.20
2018-02-09T01:22:57.703Z,89.90
2018-02-09T01:23:57.636Z,89.60
2018-02-09T01:24:57.564Z,90.40
2018-02-09T01:25:57.495Z,89.60
2018-02-09T01:26:57.427Z,85.50
2018-02-09T01:27:57.358Z,90.80
2018-02-09T01:28:57.290Z,92.30
2018-02-09T01:29:57.219Z,90.30
2018-02-09T01:30:57.150Z,87.20
2018-02-09T01:31:57.081Z,84.80
2018-02-09T01:32:57.011Z,86.40
2018-02-09T01:33:56.942Z,87.60
2018-02-09T01:34:56.876Z,85.20
2018-02-09T01:35:56.805Z,86.30
2018-02-09T01:36:56.736Z,87.30
2018-02-09T01:37:56.666Z,83.90
2018-02-09T01:38:56.598Z,83.70
2018-02-09T01:39:56.529Z,88.20
2018-02-09T01:40:56.459Z,88.90
2018-02-09T01:41:56.390Z,88.70
2018-02-09T01:42:56.322Z,87.00
2018-02-09T01:43:56.252Z,87.70
2018-02-09T01:44:56.183Z,82.50
2018-02-09T01:45:56.114Z,81.10
2018-02-09T01:46:56.045Z,83.10
2018-02-09T01:47:55.976Z,92.90
2018-02-09T01:48:55.906Z,94.90
2018-02-09T01:49:55.837Z,92.80
2018-02-09T01:50:55.768Z,92.90
2018-02-09T01:51:55.701Z,94.20
2018-02-09T01:52:55.632Z,90.70
2018-02-09T01:53:55.561Z,91.20
2018-02-09T01:54:55.493Z,94.60
2018-02-09T01:55:55.424Z,95.50
2018-02-09T01:56:55.354Z,93.90
2018-02-09T01:57:55.284Z,94.20
2018-02-09T01:58:55.217Z,97.70
2018-02-09T01:59:55.147Z,95.50
2018-02-09T02:00:55.077Z,99.00
2018-02-09T02:01:55.008Z,95.90
2018-02-09T02:02:54.941Z,91.50
2018-02-09T02:03:54.870Z,93.00
2018-02-09T02:04:54.803Z,90.90
2018-02-09T02:05:54.733Z,96.00
2018-02-09T02:06:54.662Z,91.80
2018-02-09T02:07:54.594Z,93.80
2018-02-09T02:08:54.527Z,95.70
2018-02-09T02:09:54.456Z,94.20
2018-02-09T02:10:54.390Z,96.50
2018-02-09T02:11:54.318Z,96.90
2018-02-09T02:12:54.250Z,92.70
2018-02-09T02:13:54.180Z,93.10
2018-02-09T02:14:54.110Z,100.60
2018-02-09T02:15:54.042Z,96.30
2018-02-09T02:16:53.973Z,95.70
2018-02-09T02:17:53.902Z,94.00
2018-02-09T02:18:53.833Z,96.00
2018-02-09T02:19:53.766Z,97.70
2018-02-09T02:20:53.701Z,98.10
2018-02-09T02:21:53.626Z,94.90
2018-02-09T02:22:53.557Z,90.80
2018-02-09T02:23:53.490Z,93.30
2018-02-09T02:24:53.420Z,92.50
2018-02-09T02:25:53.350Z,91.70
2018-02-09T02:26:53.284Z,92.20
2018-02-09T02:27:53.213Z,89.10
2018-02-09T02:28:53.143Z,92.90
2018-02-09T02:29:53.074Z,92.30
2018-02-09T02:30:53.004Z,92.00
2018-02-09T02:31:52.937Z,91.60
2018-02-09T02:32:52.867Z,91.20
2018-02-09T02:33:52.799Z,89.60
2018-02-09T02:34:52.730Z,92.50
2018-02-09T02:35:52.660Z,95.00
2018-02-09T02:36:52.589Z,90.50
2018-02-09T02:37:52.523Z,96.20
2018-02-09T02:38:52.455Z,93.60
2018-02-09T02:39:52.384Z,89.70
2018-02-09T02:40:52.316Z,92.00
2018-02-09T02:41:52.247Z,90.10
2018-02-09T02:42:52.177Z,89.10
2018-02-09T02:43:52.108Z,91.30
2018-02-09T02:44:52.039Z,91.10
2018-02-09T02:45:51.969Z,91.60
2018-02-09T02:46:51.902Z,90.60
2018-02-09T02:47:51.837Z,93.20
2018-02-09T02:48:51.763Z,92.20
2018-02-09T02:49:51.693Z,88.20
2018-02-09T02:50:51.624Z,85.80
2018-02-09T02:51:51.556Z,87.60
2018-02-09T02:52:51.492Z,90.00
2018-02-09T02:53:51.418Z,95.00
2018-02-09T02:54:51.348Z,91.30
2018-02-09T02:55:51.281Z,89.60
2018-02-09T02:56:51.209Z,90.40
2018-02-09T02:57:51.140Z,91.30
2018-02-09T02:58:51.072Z,86.60
2018-02-09T02:59:51.004Z,88.80
2018-02-09T03:00:50.933Z,86.60
2018-02-09T03:01:50.863Z,88.30
2018-02-09T03:02:50.798Z,82.30
2018-02-09T03:03:50.726Z,84.20
2018-02-09T03:04:50.657Z,82.90
2018-02-09T03:05:50.589Z,84.90
2018-02-09T03:06:50.520Z,81.70
2018-02-09T03:07:50.450Z,80.40
2018-02-09T03:08:50.382Z,84.10
2018-02-09T03:09:50.313Z,83.20
2018-02-09T03:10:50.243Z,84.40
2018-02-09T03:11:50.174Z,80.60
2018-02-09T03:12:50.105Z,74.70
2018-02-09T03:13:50.037Z,79.60
2018-02-09T03:14:49.967Z,81.70
2018-02-09T03:15:49.898Z,80.70
2018-02-09T03:16:49.827Z,85.60
2018-02-09T03:17:49.761Z,82.00
2018-02-09T03:18:49.692Z,82.90
2018-02-09T03:19:49.623Z,83.20
2018-02-09T03:20:49.553Z,82.60
2018-02-09T03:21:49.486Z,81.50
2018-02-09T03:22:49.415Z,81.30
2018-02-09T03:23:49.346Z,78.30
2018-02-09T03:24:49.278Z,77.00
2018-02-09T03:25:49.207Z,77.00
2018-02-09T03:26:49.138Z,79.60
2018-02-09T03:27:49.071Z,82.10
2018-02-09T03:28:49.004Z,80.90
2018-02-09T03:29:48.932Z,81.50
2018-02-09T03:30:48.883Z,80.90
2018-02-09T03:31:48.794Z,79.80
2018-02-09T03:32:48.725Z,77.20
2018-02-09T03:33:48.655Z,79.70
2018-02-09T03:34:48.587Z,79.30
2018-02-09T03:35:48.517Z,78.50
2018-02-09T03:36:48.449Z,78.50
2018-02-09T03:37:48.380Z,78.60
2018-02-09T03:38:48.310Z,81.50
2018-02-09T03:39:48.242Z,81.70
2018-02-09T03:40:48.173Z,79.80
2018-02-09T03:41:48.103Z,74.40
2018-02-09T03:42:48.035Z,75.20
2018-02-09T03:43:47.966Z,76.70
2018-02-09T03:44:47.896Z,74.70
2018-02-09T03:45:47.827Z,77.30
2018-02-09T03:46:47.759Z,80.00
2018-02-09T03:47:47.689Z,78.00
2018-02-09T03:48:47.620Z,75.20
2018-02-09T03:49:47.551Z,74.50
2018-02-09T03:50:47.483Z,72.80
2018-02-09T03:51:47.414Z,76.50
2018-02-09T03:52:47.345Z,74.70
2018-02-09T03:53:47.276Z,73.80
2018-02-09T03:54:47.208Z,73.30
2018-02-09T03:55:47.140Z,75.10
2018-02-09T03:56:47.069Z,74.40
2018-02-09T03:57:47.052Z,74.60
2018-02-09T03:58:46.930Z,70.70
2018-02-09T03:59:46.862Z,76.30
2018-02-09T04:00:46.792Z,73.80
2018-02-09T04:01:46.727Z,77.00
2018-02-09T04:02:46.655Z,77.50
2018-02-09T04:03:46.586Z,74.10
2018-02-09T04:04:46.517Z,73.00
2018-02-09T04:05:46.447Z,76.00
2018-02-09T04:06:46.379Z,76.40
2018-02-09T04:07:46.310Z,75.10
2018-02-09T04:08:46.240Z,73.40
2018-02-09T04:09:46.171Z,75.30
2018-02-09T04:10:46.104Z,75.10
2018-02-09T04:11:46.040Z,74.30
2018-02-09T04:12:45.965Z,75.70
2018-02-09T04:13:45.896Z,77.50
2018-02-09T04:14:45.827Z,75.70
2018-02-09T04:15:45.759Z,75.20
2018-02-09T04:16:46.012Z,71.50
2018-02-09T04:17:45.620Z,68.40
2018-02-09T04:18:45.551Z,72.70
2018-02-09T04:19:45.481Z,72.50
2018-02-09T04:20:45.414Z,73.60
2018-02-09T04:21:45.345Z,72.80
2018-02-09T04:22:45.278Z,71.50
2018-02-09T04:23:45.206Z,73.40
2018-02-09T04:24:45.137Z,72.90
2018-02-09T04:25:45.068Z,72.70
2018-02-09T04:26:45.000Z,71.50
2018-02-09T04:27:44.931Z,72.80
2018-02-09T04:28:44.862Z,73.80
2018-02-09T04:29:44.793Z,72.60
2018-02-09T04:30:44.725Z,73.20
2018-02-09T04:31:44.656Z,68.30
2018-02-09T04:32:44.586Z,72.30
2018-02-09T04:33:44.518Z,71.80
2018-02-09T04:34:44.447Z,70.60
2018-02-09T04:35:44.379Z,71.30
2018-02-09T04:36:44.310Z,70.10
2018-02-09T04:37:44.273Z,70.00
2018-02-09T04:38:44.173Z,67.50
2018-02-09T04:39:44.104Z,69.70
2018-02-09T04:40:44.034Z,68.30
2018-02-09T04:41:43.965Z,70.60
2018-02-09T04:42:43.898Z,68.10
2018-02-09T04:43:43.828Z,69.30
2018-02-09T04:44:43.760Z,66.40
2018-02-09T04:45:43.695Z,68.60
2018-02-09T04:46:43.622Z,70.20
2018-02-09T04:47:43.552Z,64.50
2018-02-09T04:48:43.483Z,67.20
2018-02-09T04:49:43.429Z,66.30
2018-02-09T04:50:43.345Z,66.10
2018-02-09T04:51:43.278Z,66.50
2018-02-09T04:52:43.207Z,70.00
2018-02-09T04:53:43.138Z,69.50
2018-02-09T04:54:43.071Z,67.70
2018-02-09T04:55:43.002Z,67.60
2018-02-09T04:56:42.935Z,67.30
2018-02-09T04:57:42.864Z,67.90
2018-02-09T04:58:42.794Z,69.50
2018-02-09T04:59:42.724Z,68.90
2018-02-09T05:00:42.657Z,66.70
2018-02-09T05:01:42.588Z,67.20
2018-02-09T05:02:42.519Z,65.20
2018-02-09T05:03:42.451Z,67.20
2018-02-09T05:04:42.382Z,64.20
2018-02-09T05:05:42.312Z,64.70
2018-02-09T05:06:42.245Z,64.80
2018-02-09T05:07:42.378Z,67.00
2018-02-09T05:08:42.105Z,67.90
2018-02-09T05:09:42.042Z,65.90
2018-02-09T05:10:41.969Z,65.70
2018-02-09T05:11:41.899Z,62.90
2018-02-09T05:12:41.831Z,65.10
2018-02-09T05:13:41.761Z,65.50
2018-02-09T05:14:41.693Z,66.20
2018-02-09T05:15:41.625Z,66.20
2018-02-09T05:16:41.557Z,64.30
2018-02-09T05:17:41.486Z,64.30
2018-02-09T05:18:41.418Z,65.70
2018-02-09T05:19:41.350Z,64.90
2018-02-09T05:20:41.279Z,63.80
2018-02-09T05:21:41.213Z,67.70
2018-02-09T05:22:41.142Z,63.80
2018-02-09T05:23:41.136Z,64.20
2018-02-09T05:24:41.004Z,64.30
2018-02-09T05:25:40.935Z,64.90
2018-02-09T05:27:40.800Z,66.10
2018-02-09T05:28:40.728Z,64.00
2018-02-09T05:29:40.660Z,64.30
2018-02-09T05:30:40.616Z,64.60
2018-02-09T05:31:40.523Z,60.70
2018-02-09T05:32:40.453Z,62.20
2018-02-09T05:33:40.385Z,62.00
2018-02-09T05:34:40.315Z,64.10
2018-02-09T05:35:40.247Z,64.90
2018-02-09T05:36:40.178Z,66.20
2018-02-09T05:37:40.111Z,65.20
2018-02-09T05:38:40.040Z,66.10
2018-02-09T05:39:39.972Z,66.10
2018-02-09T05:40:39.904Z,64.60
2018-02-09T05:41:39.834Z,64.80
2018-02-09T05:42:39.767Z,59.50
2018-02-09T05:43:39.696Z,64.10
2018-02-09T05:44:39.627Z,63.70
2018-02-09T05:45:39.559Z,65.80
2018-02-09T05:46:39.490Z,64.80
2018-02-09T05:47:39.421Z,65.30
2018-02-09T05:48:39.352Z,68.80
2018-02-09T05:49:39.319Z,66.20
2018-02-09T05:50:39.216Z,65.60
2018-02-09T05:51:39.146Z,67.10
2018-02-09T05:52:39.076Z,65.30
2018-02-09T05:53:39.008Z,65.30
2018-02-09T05:54:38.938Z,65.70
2018-02-09T05:55:38.875Z,65.90
2018-02-09T05:56:38.802Z,67.00
2018-02-09T05:57:38.734Z,67.30
2018-02-09T05:58:38.664Z,67.90
2018-02-09T05:59:38.600Z,68.20
2018-02-09T06:00:38.526Z,66.30
2018-02-09T06:01:38.456Z,68.20
2018-02-09T06:02:38.390Z,69.70
2018-02-09T06:03:38.321Z,65.80
2018-02-09T06:04:38.250Z,65.00
2018-02-09T06:05:38.183Z,66.80
2018-02-09T06:06:38.114Z,69.50
2018-02-09T06:07:38.045Z,69.10
2018-02-09T06:08:37.976Z,66.60
2018-02-09T06:09:37.910Z,65.60
2018-02-09T06:10:37.838Z,68.50
2018-02-09T06:11:37.772Z,66.90
2018-02-09T06:12:37.701Z,65.00
2018-02-09T06:13:37.638Z,67.50
2018-02-09T06:14:37.564Z,65.00
2018-02-09T06:15:37.495Z,67.50
2018-02-09T06:16:37.426Z,67.70
2018-02-09T06:17:37.358Z,67.80
2018-02-09T06:18:37.289Z,66.50
2018-02-09T06:19:37.220Z,65.70
2018-02-09T06:20:37.150Z,63.90
2018-02-09T06:21:37.082Z,66.40
2018-02-09T06:22:37.016Z,66.30
2018-02-09T06:23:36.945Z,66.90
2018-02-09T06:24:36.876Z,65.30
2018-02-09T06:25:36.809Z,64.40
2018-02-09T06:26:36.739Z,65.60
2018-02-09T06:27:36.669Z,66.40
2018-02-09T06:28:36.603Z,66.70
2018-02-09T06:29:36.533Z,69.00
2018-02-09T06:30:36.463Z,67.30
2018-02-09T06:31:36.396Z,67.70
2018-02-09T06:32:36.325Z,68.30
2018-02-09T06:33:36.257Z,67.30
2018-02-09T06:34:36.188Z,67.20
2018-02-09T06:35:36.119Z,67.30
2018-02-09T06:36:36.053Z,67.50
2018-02-09T06:37:35.982Z,68.20
2018-02-09T06:38:35.913Z,67.80
2018-02-09T06:39:35.844Z,68.00
2018-02-09T06:40:35.774Z,66.00
2018-02-09T06:41:35.706Z,69.30
2018-02-09T06:42:35.638Z,66.70
2018-02-09T06:43:35.569Z,68.30
2018-02-09T06:44:35.499Z,70.50
2018-02-09T06:45:35.429Z,68.50
2018-02-09T06:46:35.362Z,68.60
2018-02-09T06:47:35.294Z,70.90
2018-02-09T06:49:35.155Z,69.40
2018-02-09T06:50:35.088Z,68.40
2018-02-09T06:51:35.018Z,72.30
2018-02-09T06:52:34.949Z,70.20
2018-02-09T06:53:34.880Z,69.20
2018-02-09T06:54:34.812Z,69.70
2018-02-09T06:55:34.743Z,69.80
2018-02-09T06:56:34.674Z,68.10
2018-02-09T06:57:34.605Z,68.80
2018-02-09T06:58:34.537Z,69.60
2018-02-09T06:59:34.479Z,64.80
2018-02-09T07:00:34.398Z,69.00
2018-02-09T07:01:34.381Z,69.60
2018-02-09T07:02:34.261Z,68.00
2018-02-09T07:03:34.193Z,70.80
2018-02-09T07:04:34.123Z,70.60
2018-02-09T07:05:34.055Z,68.90
2018-02-09T07:06:33.986Z,68.70
2018-02-09T07:07:33.918Z,69.80
2018-02-09T07:08:33.849Z,69.00
2018-02-09T07:09:33.779Z,68.40
2018-02-09T07:10:33.981Z,67.80
2018-02-09T07:11:33.642Z,68.80
2018-02-09T07:12:33.575Z,69.40
2018-02-09T07:13:33.506Z,69.60
2018-02-09T07:14:33.436Z,67.60
2018-02-09T07:15:33.370Z,68.00
2018-02-09T07:16:33.299Z,68.10
2018-02-09T07:17:33.229Z,70.00
2018-02-09T07:18:33.161Z,69.90
2018-02-09T07:19:33.093Z,67.50
2018-02-09T07:20:33.067Z,71.80
2018-02-09T07:21:32.954Z,69.40
2018-02-09T07:22:32.886Z,69.90
2018-02-09T07:23:32.817Z,71.20
2018-02-09T07:24:32.751Z,72.30
2018-02-09T07:25:32.680Z,70.00
2018-02-09T07:26:32.611Z,69.30
2018-02-09T07:27:32.545Z,69.20
2018-02-09T07:28:32.480Z,72.60
2018-02-09T07:29:32.406Z,70.50
2018-02-09T07:30:32.337Z,69.90
2018-02-09T07:31:32.269Z,71.80
2018-02-09T07:32:32.198Z,74.10
2018-02-09T07:33:32.130Z,70.30
2018-02-09T07:34:32.063Z,71.40
2018-02-09T07:35:31.993Z,70.40
2018-02-09T07:36:31.925Z,69.30
2018-02-09T07:37:31.854Z,72.10
2018-02-09T07:38:31.787Z,69.10
2018-02-09T07:39:31.719Z,70.20
2018-02-09T07:40:31.649Z,68.70
2018-02-09T07:41:31.582Z,70.10
2018-02-09T07:42:31.513Z,72.30
2018-02-09T07:43:31.444Z,69.70
2018-02-09T07:44:31.376Z,70.10
2018-02-09T07:45:31.307Z,68.10
2018-02-09T07:46:31.238Z,68.30
2018-02-09T07:47:31.172Z,69.50
2018-02-09T07:48:31.101Z,69.80
2018-02-09T07:49:31.033Z,70.10
2018-02-09T07:50:30.975Z,71.50
2018-02-09T07:51:30.896Z,71.00
2018-02-09T07:52:30.826Z,69.10
2018-02-09T07:53:30.759Z,69.30
2018-02-09T07:54:30.689Z,71.00
2018-02-09T07:55:30.621Z,70.80
2018-02-09T07:56:30.554Z,74.90
2018-02-09T07:57:30.507Z,69.50
2018-02-09T07:58:30.417Z,72.20
2018-02-09T07:59:30.349Z,72.30
2018-02-09T08:00:30.277Z,71.00
2018-02-09T08:01:30.281Z,70.80
2018-02-09T08:02:30.142Z,71.30
2018-02-09T08:03:30.073Z,69.40
2018-02-09T08:04:30.006Z,71.90
2018-02-09T08:05:29.936Z,70.50
2018-02-09T08:06:29.868Z,69.50
2018-02-09T08:07:29.800Z,70.60
2018-02-09T08:08:29.730Z,70.50
2018-02-09T08:09:29.662Z,71.70
2018-02-09T08:10:29.593Z,74.70
2018-02-09T08:11:29.525Z,74.50
2018-02-09T08:12:29.465Z,71.60
2018-02-09T08:13:29.388Z,71.60
2018-02-09T08:14:29.319Z,69.90
2018-02-09T08:15:29.253Z,68.50
2018-02-09T08:16:29.182Z,72.50
2018-02-09T08:17:29.114Z,71.20
2018-02-09T08:18:29.047Z,71.70
2018-02-09T08:19:28.978Z,71.80
2018-02-09T08:20:28.908Z,73.10
2018-02-09T08:21:28.840Z,72.30
2018-02-09T08:22:28.772Z,71.40
2018-02-09T08:23:28.704Z,73.30
2018-02-09T08:24:28.634Z,73.20
2018-02-09T08:25:28.567Z,73.10
2018-02-09T08:26:28.498Z,70.90
2018-02-09T08:27:28.431Z,73.80
2018-02-09T08:28:28.361Z,74.00
2018-02-09T08:29:28.295Z,73.20
2018-02-09T08:30:28.226Z,73.20
2018-02-09T08:31:28.158Z,71.50
2018-02-09T08:32:28.087Z,72.40
2018-02-09T08:33:28.021Z,73.70
2018-02-09T08:34:27.953Z,73.60
2018-02-09T08:35:28.207Z,75.00
2018-02-09T08:36:27.814Z,74.30
2018-02-09T08:37:27.747Z,73.20
2018-02-09T08:38:27.679Z,73.50
2018-02-09T08:39:27.612Z,75.30
2018-02-09T08:40:27.542Z,73.80
2018-02-09T08:41:27.474Z,72.50
2018-02-09T08:42:27.406Z,71.50
2018-02-09T08:43:27.337Z,74.30
2018-02-09T08:44:27.269Z,71.60
2018-02-09T08:45:27.200Z,71.80
2018-02-09T08:46:27.134Z,74.80
2018-02-09T08:47:27.064Z,71.60
2018-02-09T08:48:26.996Z,71.50
2018-02-09T08:49:26.927Z,70.70
2018-02-09T08:50:26.863Z,74.60
2018-02-09T08:51:26.791Z,71.20
2018-02-09T08:52:26.723Z,72.50
2018-02-09T08:53:26.655Z,68.60
2018-02-09T08:54:26.588Z,69.70
2018-02-09T08:55:26.518Z,70.10
2018-02-09T08:56:26.450Z,70.50
2018-02-09T08:57:26.383Z,70.40
2018-02-09T08:58:26.314Z,69.50
2018-02-09T08:59:26.294Z,72.90
2018-02-09T09:00:26.177Z,69.40
2018-02-09T09:01:26.108Z,68.00
2018-02-09T09:02:26.041Z,71.60
2018-02-09T09:03:25.973Z,71.80
2018-02-09T09:04:25.904Z,71.60
2018-02-09T09:05:25.836Z,73.10
2018-02-09T09:06:25.773Z,70.90
2018-02-09T09:07:25.702Z,68.80
2018-02-09T09:08:25.637Z,69.20
2018-02-09T09:09:25.570Z,70.10
2018-02-09T09:10:25.496Z,68.20
2018-02-09T09:11:25.429Z,68.10
2018-02-09T09:12:25.359Z,68.10
2018-02-09T09:13:25.293Z,71.60
2018-02-09T09:14:25.226Z,70.00
2018-02-09T09:15:25.160Z,70.90
2018-02-09T09:16:25.088Z,69.10
2018-02-09T09:17:25.021Z,69.70
2018-02-09T09:18:24.951Z,68.10
2018-02-09T09:19:24.890Z,69.80
2018-02-09T09:20:24.815Z,68.80
2018-02-09T09:21:24.748Z,68.00
2018-02-09T09:22:24.679Z,70.40
2018-02-09T09:23:24.611Z,68.20
2018-02-09T09:24:24.543Z,67.20
2018-02-09T09:25:24.475Z,68.30
2018-02-09T09:26:24.406Z,67.30
2018-02-09T09:27:24.340Z,67.60
2018-02-09T09:28:24.272Z,66.20
2018-02-09T09:29:24.204Z,67.20
2018-02-09T09:30:24.136Z,68.40
2018-02-09T09:31:24.068Z,69.30
2018-02-09T09:32:24.005Z,68.10
2018-02-09T09:33:23.933Z,65.90
2018-02-09T09:34:23.865Z,67.40
2018-02-09T09:35:23.798Z,66.30
2018-02-09T09:36:23.729Z,64.20
2018-02-09T09:37:23.662Z,65.70
2018-02-09T09:38:23.594Z,64.90
2018-02-09T09:39:23.529Z,65.50
2018-02-09T09:40:23.458Z,64.80
2018-02-09T09:41:23.391Z,65.20
2018-02-09T09:42:23.324Z,66.90
2018-02-09T09:43:23.255Z,66.20
2018-02-09T09:44:23.187Z,67.10
2018-02-09T09:45:23.121Z,65.50
2018-02-09T09:46:23.052Z,64.10
2018-02-09T09:47:22.986Z,63.70
2018-02-09T09:48:22.918Z,64.90
2018-02-09T09:49:22.850Z,66.50
2018-02-09T09:50:22.795Z,63.70
2018-02-09T09:51:22.715Z,66.30
2018-02-09T09:52:22.646Z,64.90
2018-02-09T09:53:22.607Z,64.80
2018-02-09T09:54:22.511Z,63.80
2018-02-09T09:55:22.444Z,64.90
2018-02-09T09:56:22.376Z,65.10
2018-02-09T09:57:22.309Z,65.20
2018-02-09T09:58:22.241Z,64.30
2018-02-09T09:59:22.175Z,64.20
2018-02-09T10:00:22.106Z,63.10
2018-02-09T10:01:22.044Z,63.80
2018-02-09T10:02:21.971Z,64.30
2018-02-09T10:03:21.906Z,65.10
2018-02-09T10:04:21.838Z,64.50
2018-02-09T10:05:21.769Z,63.30
2018-02-09T10:06:21.705Z,64.20
2018-02-09T10:07:21.635Z,65.90
2018-02-09T10:08:21.568Z,62.80
2018-02-09T10:09:21.501Z,64.20
2018-02-09T10:10:21.434Z,62.00
2018-02-09T10:11:21.372Z,63.80
2018-02-09T10:12:21.298Z,64.40
2018-02-09T10:13:21.231Z,63.20
2018-02-09T10:14:21.170Z,59.60
2018-02-09T10:15:21.097Z,59.60
2018-02-09T10:16:21.030Z,63.60
2018-02-09T10:17:20.962Z,61.40
2018-02-09T10:18:20.896Z,59.50
2018-02-09T10:19:20.830Z,58.50
2018-02-09T10:20:20.763Z,59.70
2018-02-09T10:21:20.694Z,57.30
2018-02-09T10:22:20.629Z,59.50
2018-02-09T10:23:20.561Z,57.70
2018-02-09T10:24:20.493Z,58.10
2018-02-09T10:25:20.426Z,60.10
2018-02-09T10:26:20.359Z,55.60
2018-02-09T10:27:20.293Z,57.20
2018-02-09T10:28:20.230Z,56.50
2018-02-09T10:29:20.159Z,58.00
2018-02-09T10:30:20.090Z,57.50
2018-02-09T10:31:20.051Z,56.60
2018-02-09T10:32:19.956Z,55.70
2018-02-09T10:33:19.889Z,55.20
2018-02-09T10:34:19.823Z,54.70
2018-02-09T10:35:19.756Z,58.30
2018-02-09T10:36:19.689Z,56.70
2018-02-09T10:37:19.621Z,57.20
2018-02-09T10:38:19.555Z,57.30
2018-02-09T10:39:19.487Z,58.40
2018-02-09T10:40:19.421Z,56.10
2018-02-09T10:41:19.354Z,55.80
2018-02-09T10:42:19.286Z,55.50
2018-02-09T10:43:19.223Z,55.60
2018-02-09T10:44:19.152Z,55.20
2018-02-09T10:45:19.085Z,56.10
2018-02-09T10:46:19.020Z,56.10
2018-02-09T10:47:18.952Z,57.50
2018-02-09T10:48:18.885Z,55.30
2018-02-09T10:49:18.820Z,55.70
2018-02-09T10:50:18.751Z,56.50
2018-02-09T10:51:18.685Z,55.60
2018-02-09T10:52:18.642Z,57.50
2018-02-09T10:53:18.551Z,56.70
2018-02-09T10:54:18.485Z,56.80
2018-02-09T10:55:18.418Z,56.20
2018-02-09T10:56:18.348Z,56.10
2018-02-09T10:57:18.283Z,56.40
2018-02-09T10:58:18.216Z,56.90
2018-02-09T10:59:18.150Z,56.80
2018-02-09T11:00:18.082Z,56.50
2018-02-09T11:01:18.017Z,56.30
2018-02-09T11:02:17.950Z,56.80
2018-02-09T11:03:18.084Z,56.80
2018-02-09T11:04:17.815Z,56.00
2018-02-09T11:05:17.748Z,56.80
2018-02-09T11:06:17.682Z,58.90
2018-02-09T11:07:17.616Z,58.20
2018-02-09T11:08:17.549Z,58.40
2018-02-09T11:09:17.482Z,57.80
2018-02-09T11:10:17.416Z,57.00
2018-02-09T11:11:17.389Z,58.80
2018-02-09T11:12:17.281Z,59.20
2018-02-09T11:13:17.215Z,58.60
2018-02-09T11:14:17.148Z,57.60
2018-02-09T11:15:17.082Z,59.10
2018-02-09T11:16:17.015Z,57.50
2018-02-09T11:17:16.975Z,57.90
2018-02-09T11:18:16.882Z,57.20
2018-02-09T11:19:16.822Z,56.30
2018-02-09T11:20:16.796Z,57.00
2018-02-09T11:21:16.682Z,56.10
2018-02-09T11:22:16.615Z,53.90
2018-02-09T11:23:16.548Z,57.80
2018-02-09T11:24:16.482Z,56.90
2018-02-09T11:25:16.415Z,56.70
2018-02-09T11:26:16.377Z,56.50
2018-02-09T11:27:16.282Z,55.70
2018-02-09T11:28:16.215Z,57.60
2018-02-09T11:29:16.148Z,59.00
2018-02-09T11:30:16.084Z,57.80
2018-02-09T11:31:16.015Z,55.90
2018-02-09T11:32:15.948Z,54.80
2018-02-09T11:33:15.883Z,54.70
2018-02-09T11:34:15.816Z,56.70
2018-02-09T11:35:15.749Z,54.90
2018-02-09T11:36:15.681Z,54.90
2018-02-09T11:37:15.616Z,53.80
2018-02-09T11:38:15.574Z,55.70
2018-02-09T11:39:15.482Z,55.10
2018-02-09T11:40:15.416Z,52.60
2018-02-09T11:41:15.365Z,54.20
2018-02-09T11:42:15.284Z,53.40
2018-02-09T11:43:15.218Z,54.30
2018-02-09T11:44:15.150Z,52.40
2018-02-09T11:45:15.084Z,53.80
2018-02-09T11:46:15.038Z,53.10
2018-02-09T11:47:14.952Z,52.70
2018-02-09T11:48:14.884Z,53.00
2018-02-09T11:49:14.820Z,52.30
2018-02-09T11:50:14.752Z,53.20
2018-02-09T11:51:14.690Z,51.90
2018-02-09T11:52:14.619Z,51.00
2018-02-09T11:53:14.557Z,51.40
2018-02-09T11:54:14.489Z,52.00
2018-02-09T11:55:14.422Z,52.30
2018-02-09T11:56:14.355Z,50.00
2018-02-09T11:57:14.289Z,49.70
2018-02-09T11:58:14.222Z,49.40
2018-02-09T11:59:14.156Z,51.30
2018-02-09T12:00:14.088Z,50.20
2018-02-09T12:01:14.022Z,51.10
2018-02-09T12:02:13.956Z,50.50
2018-02-09T12:03:13.890Z,49.70
2018-02-09T12:04:13.823Z,50.20
2018-02-09T12:05:13.757Z,49.80
2018-02-09T12:06:13.691Z,49.00
2018-02-09T12:07:13.627Z,49.80
2018-02-09T12:08:13.559Z,49.90
2018-02-09T12:09:13.493Z,50.30
2018-02-09T12:10:13.427Z,51.00
2018-02-09T12:11:13.360Z,48.00
2018-02-09T12:12:13.293Z,50.10
2018-02-09T12:13:13.228Z,50.80
2018-02-09T12:14:13.161Z,51.20
2018-02-09T12:15:13.096Z,49.30
2018-02-09T12:16:13.028Z,49.30
2018-02-09T12:17:12.962Z,48.20
2018-02-09T12:18:12.898Z,51.80
2018-02-09T12:19:12.830Z,51.30
2018-02-09T12:20:12.766Z,51.50
2018-02-09T12:21:12.698Z,49.80
2018-02-09T12:22:12.632Z,49.40
2018-02-09T12:23:12.583Z,53.10
2018-02-09T12:24:12.498Z,51.20
2018-02-09T12:25:12.436Z,47.40
2018-02-09T12:26:12.368Z,49.80
2018-02-09T12:27:12.304Z,50.00
2018-02-09T12:28:12.233Z,50.20
2018-02-09T12:29:12.168Z,49.90
2018-02-09T12:30:12.100Z,50.10
2018-02-09T12:31:12.035Z,49.30
2018-02-09T12:32:11.968Z,50.20
2018-02-09T12:33:11.903Z,48.40
2018-02-09T12:34:11.838Z,50.60
2018-02-09T12:35:11.770Z,48.80
2018-02-09T12:36:11.704Z,49.10
2018-02-09T12:37:11.638Z,48.20
2018-02-09T12:38:11.572Z,48.70
2018-02-09T12:39:11.504Z,48.60
2018-02-09T12:40:11.440Z,48.10
2018-02-09T12:41:11.371Z,50.20
2018-02-09T12:42:11.309Z,50.10
2018-02-09T12:43:11.241Z,48.50
2018-02-09T12:44:11.175Z,48.80
2018-02-09T12:45:11.107Z,48.90
2018-02-09T12:46:11.043Z,48.00
2018-02-09T12:47:10.976Z,50.80
2018-02-09T12:48:10.910Z,51.20
2018-02-09T12:49:10.844Z,48.10
2018-02-09T12:50:10.778Z,48.30
2018-02-09T12:51:10.717Z,49.30
2018-02-09T12:52:10.646Z,49.60
2018-02-09T12:53:10.580Z,49.90